Pagrindinis puslapis
METAR-TAF:

METAR-TAF

Oro uostai :

Sirtas, Turkija

platuma: 37-58-41N, ilguma: 41-50-21E, Aukštis: 610 m

Dabartinis oras

Ataskaita buvo paskelbta 1 valandą ir 27 minutes, ne 12:50 UTC
Vėjas 9 kt iš Šiaurės/Šiaurės Vakarų
Temperatūra 36°C
Drėgmė 13%
Slėgis 1013 hPa
Matomumas 10 km arba daugiau
nėra debesų žemiau 1500 m ir nėra kamuolinių lietaus debesų

METAR: LTCL 281250Z 33009KT CAVOK 36/03 Q1013

Laikas: 17:17 (14:17 UTC)

Prognozė

Ataskaita buvo paskelbta 3 valandos ir 37 minutes, ne 10:40 UTC
Prognozė galioja nuo 28 metu 12 UTC su 28 metu 21 UTC
Vėjas 9 kt iš Šiaurės/Šiaurės Rytų
Matomumas 10 km arba daugiau
nėra debesų žemiau 1500 m ir nėra kamuolinių lietaus debesų

TAF: LTCL 281040Z 2812/2821 02009KT CAVOK

Orai ataskaitas ir orų prognozės (METAR, TAF).

turimą stotys yra geltonos ir raudonos taškus žemėlapyje.

Perkelti pele per norėdami pamatyti stoties vardą.

Tada spustelėkite, norėdami matyti oro stebėjimo ir prognozės.

Norėdami pakeisti žemėlapį: spustelėkite ant žalios mygtukų su juodo kryžiaus žemyn,; žalią mygtuką su brūkšneliu, jei norite nutolinti; arba žalių rodyklių gretimoms žemėlapius.


METAR-TAF: